Time Latitude Longitude Accuracy (66% radius in meters) Altitude (meters) Speed (km/hour) Bearing (degrees) Battery (%) GPS flag
06:52:12 57.203859 60.118339 3 312.66070967343 0.08481726795435 116.74786376953 95 1 delete
06:52:02 57.203860 60.118384 4 312.54473782258 0.039329539984465 116.74786376953 95 1 delete
06:51:52 57.203863 60.118383 3 312.32455694917 0.059461664408445 116.74786376953 95 1 delete
06:51:41 57.203866 60.118383 4 311.79301940176 0.1315810829401 116.74786376953 95 1 delete
06:51:30 57.203871 60.118361 4 311.57083851448 0.035221248865128 116.74786376953 95 1 delete
06:51:20 57.203868 60.118354 4 311.46546062165 0.0072821127250791 116.74786376953 95 1 delete
06:51:09 57.203868 60.118358 3 311.27156166283 0.040900282561779 116.74786376953 95 1 delete
06:50:58 57.203869 60.118354 3 311.17748652046 0.017440283671021 116.74786376953 95 1 delete
06:50:48 57.203870 60.118351 3 311.10654610618 0.054158370941877 116.74786376953 95 1 delete
06:50:36 57.203878 60.118310 3 310.71255937676 0.02775233797729 124.42475128174 95 1 delete
06:50:28 57.203899 60.118255 3 310.50273216236 1.1219789981842 124.3472442627 95 1 delete
06:50:26 57.203912 60.118214 3 310.43835954949 0.7835299372673 135.85545349121 95 1 delete
06:50:20 57.203963 60.118110 3 310.2852412298 3.3981027603149 135.69082641602 95 1 delete
06:50:16 57.204030 60.117998 3 310.20982250457 3.7503337860107 137.69975280762 95 1 delete
06:50:15 57.204044 60.117970 3 310.19299378376 3.8357303142548 132.08447265625 95 1 delete
06:50:12 57.204094 60.117864 3 310.14724291052 4.0430889129639 130.84712219238 95 1 delete
06:50:09 57.204172 60.117750 3 310.10678737568 4.1533260345459 149.20469665527 95 1 delete
06:50:06 57.204243 60.117645 3 310.0717130721 4.3068490028381 141.08708190918 95 1 delete
06:50:05 57.204268 60.117608 3 310.06226544912 4.3781089782715 140.61582946777 95 1 delete
06:50:03 57.204329 60.117538 3 310.04451033173 4.5036878585815 152.50082397461 95 1 delete
06:50:00 57.204445 60.117465 3 309.84211720737 4.5075078010559 160.98759460449 95 1 delete
06:49:57 57.204578 60.117409 3 309.46984980224 4.3982267379761 169.697265625 95 1 delete
06:49:55 57.204661 60.117389 3 309.29490670928 4.3948249816895 168.19831848145 95 1 delete
06:49:54 57.204703 60.117411 6 309.11937832895 4.35005235672 201.64642333984 95 1 delete
06:49:51 57.204836 60.117453 8 308.61895584561 3.8523991107941 193.96952819824 95 1 delete
06:49:49 57.204924 60.117487 12 308.56889980377 3.7020769119263 192.580078125 95 1 delete
06:49:46 57.205032 60.117522 12 308.4992350388 2.8157079219818 183.85542297363 95 1 delete
06:49:44 57.205084 60.117510 12 308.45616366907 2.4266431331635 152.03964233398 95 1 delete
06:49:41 57.205130 60.117433 6 308.4025300874 2.192910194397 121.28852844238 95 1 delete
06:49:36 57.205195 60.117318 12 308.33738757708 2.407532453537 148.13749694824 95 1 delete
06:49:33 57.205270 60.117260 6 308.31305044305 3.3016602993011 150.58329772949 95 1 delete
06:49:32 57.205296 60.117240 6 308.30610165473 3.5724029541016 154.44984436035 95 1 delete
06:49:29 57.205397 60.117159 6 308.29171866503 4.7521181106567 155.30479431152 95 1 delete
06:49:27 57.205493 60.117083 6 308.23820276375 5.6861867904663 155.19648742676 95 1 delete
06:49:25 57.205613 60.117022 6 308.17455791376 6.4714894294739 168.6420135498 95 1 delete
06:49:23 57.205761 60.116968 3 308.10608089012 5.6409912109375 171.79318237305 95 1 delete
06:49:21 57.205920 60.116978 3 308.03112088593 5.2089891433716 185.52604675293 95 1 delete
06:49:20 57.205986 60.116994 3 307.98989115089 5.0263476371765 187.44410705566 95 1 delete
06:49:19 57.206048 60.117008 3 307.94368282339 4.8681502342224 187.93208312988 95 1 delete
06:49:17 57.206174 60.117043 3 307.82717388131 4.5205421447754 188.72001647949 95 1 delete
06:49:15 57.206287 60.117076 3 307.68200255652 4.2390275001526 185.8166809082 95 1 delete
06:49:13 57.206395 60.117104 3 307.49377441967 3.9901704788208 187.98997497559 95 1 delete
06:49:11 57.206495 60.117121 3 307.23995241872 3.6981081962585 183.88122558594 95 1 delete
06:49:09 57.206592 60.117133 3 306.88492419073 3.419536113739 182.08099365234 95 1 delete
06:49:07 57.206682 60.117144 3 306.38056322021 3.13099360466 183.99882507324 95 1 delete
06:49:05 57.206773 60.117168 3 305.64104759422 2.8791508674622 195.96548461914 95 1 delete
06:49:02 57.206896 60.117231 3 305.51987037628 2.6214396953583 202.57487487793 95 1 delete
06:48:59 57.206993 60.117278 3 305.39895361652 2.5384418964386 200.16773986816 95 1 delete
06:48:56 57.207107 60.117348 3 305.27960936363 2.2500667572021 201.32272338867 95 1 delete
06:48:53 57.207213 60.117409 3 305.16041182626 1.9180383682251 185.79922485352 95 1 delete